createdAt,value
2023-02-25T00:02:19.557Z,71.59
2023-02-25T00:05:22.678Z,71.46
2023-02-25T00:08:25.244Z,71.47
2023-02-25T00:11:28.440Z,71.58
2023-02-25T00:14:31.313Z,71.71
2023-02-25T00:17:34.934Z,71.59
2023-02-25T00:20:40.990Z,71.74
2023-02-25T00:23:47.742Z,71.60
2023-02-25T00:26:50.447Z,71.81
2023-02-25T00:29:54.060Z,71.64
2023-02-25T00:32:56.611Z,71.77
2023-02-25T00:35:59.725Z,71.92
2023-02-25T00:39:02.389Z,71.95
2023-02-25T00:42:05.523Z,72.08
2023-02-25T00:45:09.465Z,72.16
2023-02-25T00:48:12.574Z,71.99
2023-02-25T00:51:20.572Z,72.22
2023-02-25T00:54:23.707Z,72.26
2023-02-25T00:57:26.261Z,72.28
2023-02-25T01:00:31.450Z,72.12
2023-02-25T01:03:36.708Z,71.89
2023-02-25T01:06:40.014Z,71.94
2023-02-25T01:09:45.197Z,71.98
2023-02-25T01:12:48.353Z,72.01
2023-02-25T01:15:51.145Z,72.15
2023-02-25T01:18:56.859Z,72.21
2023-02-25T01:21:59.547Z,72.14
2023-02-25T01:25:07.074Z,72.12
2023-02-25T01:28:13.329Z,72.27
2023-02-25T01:31:24.832Z,72.24
2023-02-25T01:34:28.978Z,72.34
2023-02-25T01:37:32.315Z,72.35
2023-02-25T01:40:35.085Z,72.40
2023-02-25T01:43:38.029Z,72.57
2023-02-25T01:46:42.680Z,72.53
2023-02-25T01:49:46.822Z,72.46
2023-02-25T01:52:50.064Z,72.48
2023-02-25T01:55:55.442Z,72.53
2023-02-25T01:58:59.777Z,72.54
2023-02-25T02:02:03.346Z,72.55
2023-02-25T02:05:07.465Z,72.48
2023-02-25T02:08:10.454Z,72.18
2023-02-25T02:11:13.280Z,72.26
2023-02-25T02:14:20.620Z,72.21
2023-02-25T02:17:33.546Z,71.97
2023-02-25T02:21:11.846Z,71.75
2023-02-25T02:24:48.544Z,71.85
2023-02-25T02:28:13.694Z,71.86
2023-02-25T02:31:19.707Z,71.74
2023-02-25T02:34:54.525Z,71.84
2023-02-25T02:38:12.320Z,71.95
2023-02-25T02:41:24.057Z,72.02
2023-02-25T02:44:45.168Z,71.71
2023-02-25T02:47:58.005Z,71.18
2023-02-25T02:51:03.456Z,70.68
2023-02-25T02:54:10.914Z,70.99
2023-02-25T02:57:15.830Z,71.86
2023-02-25T03:00:25.634Z,72.43
2023-02-25T03:03:39.204Z,72.60
2023-02-25T03:06:48.133Z,72.36
2023-02-25T03:09:55.434Z,72.99
2023-02-25T03:12:59.801Z,73.49
2023-02-25T03:16:07.832Z,73.33
2023-02-25T03:19:41.991Z,73.20
2023-02-25T03:22:47.736Z,73.21
2023-02-25T03:25:53.813Z,72.89
2023-02-25T03:28:57.129Z,72.82
2023-02-25T03:32:09.633Z,72.60
2023-02-25T03:35:14.750Z,72.44
2023-02-25T03:38:21.629Z,72.52
2023-02-25T03:41:29.819Z,72.26
2023-02-25T03:44:45.206Z,72.22
2023-02-25T03:47:48.350Z,72.04
2023-02-25T03:50:55.334Z,71.92
2023-02-25T03:53:58.134Z,72.19
2023-02-25T03:57:02.229Z,71.82
2023-02-25T04:00:19.135Z,71.81
2023-02-25T04:03:22.338Z,71.98
2023-02-25T04:06:25.574Z,71.93
2023-02-25T04:09:29.303Z,71.57
2023-02-25T04:12:32.102Z,71.34
2023-02-25T04:15:35.326Z,71.37
2023-02-25T04:18:38.138Z,71.15
2023-02-25T04:21:41.465Z,71.21
2023-02-25T04:24:44.079Z,71.38
2023-02-25T04:27:47.205Z,71.23
2023-02-25T04:30:50.045Z,71.33
2023-02-25T04:33:53.369Z,71.14
2023-02-25T04:36:55.894Z,71.12
2023-02-25T04:39:59.013Z,71.02
2023-02-25T04:43:01.598Z,70.99
2023-02-25T04:46:05.069Z,70.04
2023-02-25T04:49:09.634Z,70.25
2023-02-25T04:52:14.449Z,70.65
2023-02-25T04:55:17.110Z,69.65
2023-02-25T04:58:20.178Z,69.80
2023-02-25T05:01:22.903Z,68.84
2023-02-25T05:04:25.952Z,68.01
2023-02-25T05:07:28.400Z,66.99
2023-02-25T05:10:31.471Z,67.23
2023-02-25T05:13:34.066Z,67.18
2023-02-25T05:16:37.648Z,67.59
2023-02-25T05:19:40.107Z,67.57
2023-02-25T05:22:43.342Z,68.17
2023-02-25T05:25:45.839Z,67.50
2023-02-25T05:28:58.425Z,67.68
2023-02-25T05:32:01.201Z,67.66
2023-02-25T05:35:06.536Z,68.05
2023-02-25T05:38:09.190Z,67.17
2023-02-25T05:41:13.468Z,66.23
2023-02-25T05:44:16.449Z,66.90
2023-02-25T05:47:20.000Z,67.39
2023-02-25T05:50:22.729Z,68.03
2023-02-25T05:53:25.792Z,67.75
2023-02-25T05:56:31.714Z,67.70
2023-02-25T05:59:36.896Z,67.50
2023-02-25T06:02:39.455Z,67.10
2023-02-25T06:05:45.209Z,67.57
2023-02-25T06:08:49.893Z,67.88
2023-02-25T06:11:53.135Z,68.15
2023-02-25T06:14:55.662Z,67.86
2023-02-25T06:17:58.824Z,67.12
2023-02-25T06:21:14.190Z,66.94
2023-02-25T06:24:17.242Z,67.35
2023-02-25T06:27:20.497Z,68.37
2023-02-25T06:30:23.917Z,69.84
2023-02-25T06:33:26.658Z,70.81
2023-02-25T06:36:29.832Z,69.74
2023-02-25T06:39:32.600Z,69.82
2023-02-25T06:42:35.550Z,69.97
2023-02-25T06:45:38.308Z,70.91
2023-02-25T06:48:41.361Z,70.63
2023-02-25T06:51:43.773Z,70.68
2023-02-25T06:54:46.815Z,68.91
2023-02-25T06:57:49.472Z,68.12
2023-02-25T07:00:52.624Z,67.39
2023-02-25T07:03:55.385Z,66.69
2023-02-25T07:06:58.555Z,66.53
2023-02-25T07:10:01.076Z,66.46
2023-02-25T07:13:04.135Z,65.42
2023-02-25T07:16:07.001Z,65.29
2023-02-25T07:19:10.170Z,65.71
2023-02-25T07:22:18.419Z,65.05
2023-02-25T07:25:21.684Z,64.36
2023-02-25T07:28:24.384Z,64.68
2023-02-25T07:31:28.758Z,64.31
2023-02-25T07:34:32.047Z,64.84
2023-02-25T07:37:35.292Z,65.08
2023-02-25T07:40:39.120Z,64.17
2023-02-25T07:43:42.784Z,61.05
2023-02-25T07:46:45.311Z,61.34
2023-02-25T07:49:48.564Z,61.03
2023-02-25T07:52:51.078Z,61.08
2023-02-25T07:55:54.153Z,60.43
2023-02-25T07:58:56.704Z,59.34
2023-02-25T08:02:00.450Z,58.61
2023-02-25T08:05:03.901Z,59.25
2023-02-25T08:08:06.695Z,60.06
2023-02-25T08:11:12.141Z,58.94
2023-02-25T08:14:14.981Z,58.84
2023-02-25T08:17:18.333Z,58.62
2023-02-25T08:20:21.001Z,58.28
2023-02-25T08:23:24.517Z,59.03
2023-02-25T08:26:27.683Z,58.30
2023-02-25T08:29:30.563Z,58.23
2023-02-25T08:32:35.400Z,58.94
2023-02-25T08:35:38.379Z,58.78
2023-02-25T08:38:41.191Z,59.05
2023-02-25T08:41:44.858Z,59.51
2023-02-25T08:44:47.610Z,58.54
2023-02-25T08:47:50.444Z,59.24
2023-02-25T08:50:53.317Z,60.22
2023-02-25T08:53:56.069Z,59.13
2023-02-25T08:57:00.313Z,59.02
2023-02-25T09:00:06.331Z,59.95
2023-02-25T09:03:09.102Z,59.51
2023-02-25T09:06:12.795Z,59.65
2023-02-25T09:09:16.437Z,59.37
2023-02-25T09:12:19.602Z,59.57
2023-02-25T09:15:22.402Z,59.17
2023-02-25T09:18:25.761Z,58.61
2023-02-25T09:21:28.824Z,58.30
2023-02-25T09:24:33.396Z,58.25
2023-02-25T09:27:36.718Z,57.99
2023-02-25T09:30:39.725Z,57.52
2023-02-25T09:33:43.583Z,56.89
2023-02-25T09:36:46.567Z,56.40
2023-02-25T09:39:49.822Z,55.48
2023-02-25T09:43:23.461Z,54.87
2023-02-25T09:46:28.994Z,55.08
2023-02-25T09:49:42.945Z,55.54
2023-02-25T09:52:53.664Z,53.84
2023-02-25T09:55:56.919Z,54.84
2023-02-25T09:59:00.114Z,54.85
2023-02-25T10:02:14.237Z,54.34
2023-02-25T10:05:44.198Z,53.57
2023-02-25T10:08:58.383Z,53.77
2023-02-25T10:12:30.715Z,51.97
2023-02-25T10:16:12.128Z,51.88
2023-02-25T10:19:56.412Z,47.87
2023-02-25T10:23:28.350Z,42.98
2023-02-25T10:26:36.903Z,41.42
2023-02-25T10:29:46.570Z,42.45
2023-02-25T10:32:50.425Z,40.93
2023-02-25T10:36:28.589Z,42.12
2023-02-25T10:39:31.634Z,43.08
2023-02-25T10:42:34.206Z,42.88
2023-02-25T10:45:40.361Z,42.33
2023-02-25T10:48:48.216Z,41.33
2023-02-25T10:52:03.370Z,40.40
2023-02-25T10:55:26.147Z,38.97
2023-02-25T10:59:00.740Z,39.14
2023-02-25T11:02:20.513Z,36.67
2023-02-25T11:05:49.730Z,34.64
2023-02-25T11:08:54.844Z,32.35
2023-02-25T11:12:20.011Z,31.63
2023-02-25T11:15:41.726Z,29.88
2023-02-25T11:18:55.756Z,28.98
2023-02-25T11:22:00.938Z,30.49
2023-02-25T11:25:16.366Z,28.16
2023-02-25T11:28:41.198Z,27.40
2023-02-25T11:31:50.544Z,27.53
2023-02-25T11:35:09.039Z,27.03
2023-02-25T11:38:25.548Z,26.31
2023-02-25T11:41:32.110Z,26.14
2023-02-25T11:44:45.552Z,27.26
2023-02-25T11:47:49.551Z,26.80
2023-02-25T11:51:15.871Z,25.70
2023-02-25T11:54:27.418Z,25.55
2023-02-25T11:58:11.038Z,26.33
2023-02-25T12:01:36.598Z,25.90
2023-02-25T12:04:51.876Z,27.07
2023-02-25T12:08:14.318Z,27.39
2023-02-25T12:11:40.354Z,27.29
2023-02-25T12:15:01.409Z,28.12
2023-02-25T12:18:24.516Z,28.88
2023-02-25T12:21:39.214Z,29.98
2023-02-25T12:25:07.305Z,29.59
2023-02-25T12:29:01.003Z,28.64
2023-02-25T12:32:16.038Z,28.43
2023-02-25T12:35:45.139Z,28.30
2023-02-25T12:39:09.975Z,27.81
2023-02-25T12:42:35.238Z,27.64
2023-02-25T12:45:51.896Z,26.61
2023-02-25T12:49:06.643Z,26.01
2023-02-25T12:52:29.290Z,25.78
2023-02-25T12:55:31.958Z,26.21
2023-02-25T12:58:41.043Z,25.64
2023-02-25T13:02:22.519Z,25.41
2023-02-25T13:05:49.700Z,25.63
2023-02-25T13:09:21.419Z,25.22
2023-02-25T13:12:40.844Z,26.60
2023-02-25T13:16:24.009Z,26.28
2023-02-25T13:19:36.049Z,27.91
2023-02-25T13:22:53.516Z,27.29
2023-02-25T13:26:11.826Z,26.82
2023-02-25T13:29:41.680Z,26.97
2023-02-25T13:33:22.137Z,26.90
2023-02-25T13:37:05.773Z,27.58
2023-02-25T13:40:26.873Z,25.72
2023-02-25T13:44:07.017Z,25.36
2023-02-25T13:47:21.219Z,25.97
2023-02-25T13:51:07.857Z,25.77
2023-02-25T13:54:30.670Z,23.55
2023-02-25T13:57:57.655Z,24.33
2023-02-25T14:01:26.055Z,26.19
2023-02-25T14:04:53.388Z,27.36
2023-02-25T14:08:08.277Z,28.55
2023-02-25T14:11:11.263Z,30.09
2023-02-25T14:14:38.323Z,29.01
2023-02-25T14:18:12.414Z,28.69
2023-02-25T14:21:26.473Z,31.00
2023-02-25T14:24:41.510Z,29.89
2023-02-25T14:28:03.220Z,29.62
2023-02-25T14:31:38.373Z,29.45
2023-02-25T14:35:03.169Z,30.71
2023-02-25T14:38:11.997Z,31.39
2023-02-25T14:41:35.692Z,32.13
2023-02-25T14:44:49.559Z,32.92
2023-02-25T14:48:03.877Z,32.12
2023-02-25T14:51:34.547Z,33.28
2023-02-25T14:54:52.626Z,33.59
2023-02-25T14:58:17.220Z,33.55
2023-02-25T15:01:44.370Z,33.90
2023-02-25T15:05:17.209Z,33.60
2023-02-25T15:08:38.495Z,34.45
2023-02-25T15:11:50.366Z,35.33
2023-02-25T15:15:28.457Z,34.67
2023-02-25T15:18:43.389Z,34.54
2023-02-25T15:21:49.218Z,35.55
2023-02-25T15:24:55.440Z,35.02
2023-02-25T15:28:00.321Z,34.81
2023-02-25T15:31:34.234Z,35.36
2023-02-25T15:34:38.548Z,34.98
2023-02-25T15:37:50.316Z,35.16
2023-02-25T15:40:55.489Z,35.55
2023-02-25T15:44:13.432Z,36.09
2023-02-25T15:47:28.759Z,36.32
2023-02-25T15:50:43.549Z,36.65
2023-02-25T15:53:48.068Z,36.95
2023-02-25T15:56:52.533Z,38.18
2023-02-25T15:59:57.863Z,38.09
2023-02-25T16:03:03.605Z,38.69
2023-02-25T16:06:23.362Z,38.89
2023-02-25T16:09:27.383Z,38.67
2023-02-25T16:12:30.658Z,39.66
2023-02-25T16:15:37.142Z,39.18
2023-02-25T16:18:45.209Z,40.26
2023-02-25T16:22:03.094Z,39.86
2023-02-25T16:25:15.264Z,40.30
2023-02-25T16:28:34.434Z,41.08
2023-02-25T16:31:55.819Z,41.40
2023-02-25T16:35:18.512Z,41.91
2023-02-25T16:38:40.952Z,42.48
2023-02-25T16:41:43.927Z,42.35
2023-02-25T16:44:57.656Z,42.49
2023-02-25T16:48:07.505Z,41.77
2023-02-25T16:51:20.170Z,43.21
2023-02-25T16:54:30.066Z,42.81
2023-02-25T16:57:34.092Z,42.30
2023-02-25T17:00:36.679Z,43.76
2023-02-25T17:03:48.141Z,42.69
2023-02-25T17:07:19.503Z,43.90
2023-02-25T17:10:46.530Z,42.51
2023-02-25T17:13:51.704Z,44.03
2023-02-25T17:16:56.252Z,44.89
2023-02-25T17:19:59.334Z,44.31
2023-02-25T17:23:11.172Z,44.12
2023-02-25T17:26:18.591Z,44.75
2023-02-25T17:29:22.268Z,44.05
2023-02-25T17:32:27.401Z,45.37
2023-02-25T17:35:32.431Z,45.26
2023-02-25T17:38:37.052Z,45.06
2023-02-25T17:41:42.442Z,44.96
2023-02-25T17:44:46.687Z,45.90
2023-02-25T17:47:52.341Z,45.90
2023-02-25T17:51:07.950Z,45.86
2023-02-25T17:54:18.292Z,45.12
2023-02-25T17:57:23.317Z,46.08
2023-02-25T18:00:34.941Z,45.33
2023-02-25T18:03:47.527Z,45.77
2023-02-25T18:06:51.186Z,47.46
2023-02-25T18:09:54.250Z,47.41
2023-02-25T18:13:02.108Z,48.64
2023-02-25T18:20:00.818Z,49.80
2023-02-25T18:23:06.760Z,50.47
2023-02-25T18:26:18.194Z,50.48
2023-02-25T18:29:21.065Z,50.74
2023-02-25T18:32:25.067Z,51.05
2023-02-25T18:35:32.806Z,50.56
2023-02-25T18:38:41.774Z,51.37
2023-02-25T18:41:45.319Z,52.04
2023-02-25T18:44:48.344Z,51.57
2023-02-25T18:47:52.733Z,51.44
2023-02-25T18:50:56.435Z,51.16
2023-02-25T18:53:59.367Z,51.70
2023-02-25T18:57:02.263Z,52.22
2023-02-25T19:00:06.094Z,51.21
2023-02-25T19:03:14.697Z,50.91
2023-02-25T19:06:18.466Z,51.15
2023-02-25T19:09:21.420Z,51.82
2023-02-25T19:12:27.130Z,51.95
2023-02-25T19:15:30.758Z,51.57
2023-02-25T19:18:34.068Z,52.20
2023-02-25T19:21:36.884Z,52.83
2023-02-25T19:24:40.554Z,52.80
2023-02-25T19:27:43.460Z,52.89
2023-02-25T19:30:48.606Z,52.49
2023-02-25T19:33:53.872Z,52.52
2023-02-25T19:36:56.871Z,53.17
2023-02-25T19:39:59.771Z,53.03
2023-02-25T19:43:04.664Z,53.16
2023-02-25T19:46:08.695Z,53.95
2023-02-25T19:49:11.528Z,53.15
2023-02-25T19:52:15.330Z,53.89
2023-02-25T19:55:19.178Z,54.01
2023-02-25T19:58:22.029Z,53.72
2023-02-25T20:01:25.009Z,52.93
2023-02-25T20:04:28.965Z,53.08
2023-02-25T20:07:31.903Z,53.89
2023-02-25T20:10:35.277Z,54.51
2023-02-25T20:13:38.690Z,54.55
2023-02-25T20:16:44.574Z,54.79
2023-02-25T20:19:47.795Z,54.97
2023-02-25T20:23:03.287Z,54.08
2023-02-25T20:26:07.615Z,54.10
2023-02-25T20:29:13.101Z,54.13
2023-02-25T20:32:16.357Z,54.42
2023-02-25T20:35:21.382Z,53.85
2023-02-25T20:38:36.486Z,53.93
2023-02-25T20:41:40.909Z,53.07
2023-02-25T20:44:44.171Z,52.58
2023-02-25T20:47:47.492Z,53.16
2023-02-25T20:50:50.428Z,53.14
2023-02-25T20:53:54.310Z,52.83
2023-02-25T20:57:00.544Z,52.83
2023-02-25T21:00:06.196Z,52.36
2023-02-25T21:03:08.839Z,52.75
2023-02-25T21:06:14.650Z,52.13
2023-02-25T21:09:17.192Z,52.18
2023-02-25T21:12:20.335Z,51.62
2023-02-25T21:15:22.906Z,51.92
2023-02-25T21:18:26.170Z,52.08
2023-02-25T21:21:31.558Z,52.26
2023-02-25T21:24:36.200Z,51.87
2023-02-25T21:27:38.818Z,52.08
2023-02-25T21:30:42.446Z,52.22
2023-02-25T21:33:45.246Z,52.45
2023-02-25T21:36:48.504Z,51.78
2023-02-25T21:39:51.224Z,51.75
2023-02-25T21:42:55.535Z,52.54
2023-02-25T21:46:00.770Z,52.79
2023-02-25T21:49:04.180Z,52.72
2023-02-25T21:52:07.473Z,52.35
2023-02-25T21:55:11.000Z,52.32
2023-02-25T21:58:14.663Z,52.12
2023-02-25T22:01:24.795Z,52.75
2023-02-25T22:04:27.840Z,52.28
2023-02-25T22:07:31.053Z,53.20
2023-02-25T22:10:36.680Z,52.96
2023-02-25T22:13:39.482Z,53.13
2023-02-25T22:16:42.443Z,53.35
2023-02-25T22:19:45.455Z,53.42
2023-02-25T22:22:48.368Z,53.15
2023-02-25T22:25:51.174Z,53.46
2023-02-25T22:28:56.372Z,53.01
2023-02-25T22:31:59.299Z,53.03
2023-02-25T22:35:02.337Z,53.23
2023-02-25T22:38:05.159Z,53.59
2023-02-25T22:41:18.668Z,53.42
2023-02-25T22:44:22.530Z,53.84
2023-02-25T22:47:25.519Z,53.14
2023-02-25T22:50:29.135Z,53.50
2023-02-25T22:53:32.082Z,53.51
2023-02-25T22:56:35.037Z,53.49
2023-02-25T22:59:38.035Z,53.35
2023-02-25T23:02:40.837Z,53.01
2023-02-25T23:05:44.059Z,53.08
2023-02-25T23:08:47.684Z,53.07
2023-02-25T23:11:50.742Z,53.76
2023-02-25T23:14:53.597Z,54.04
2023-02-25T23:17:56.545Z,54.33
2023-02-25T23:21:05.614Z,54.08
2023-02-25T23:24:09.486Z,54.49
2023-02-25T23:27:12.311Z,54.20
2023-02-25T23:30:15.651Z,54.68
2023-02-25T23:33:18.529Z,53.93
2023-02-25T23:36:21.536Z,54.95
2023-02-25T23:39:25.075Z,54.63
2023-02-25T23:42:28.108Z,54.37
2023-02-25T23:45:31.156Z,54.97
2023-02-25T23:48:34.045Z,55.26
2023-02-25T23:51:36.899Z,55.46
2023-02-25T23:54:39.902Z,55.05
2023-02-25T23:57:42.737Z,54.85
